VE-0043 weather

Ceibana Airport
Trujillo, Venezuela

Public forecast

Using degrees Celsius for public forecast. Weather courtesy of forecast.io.

METAR (pilot weather report)

Report is more than 6 hours old.

Closest report is Hacienda San José Airport, 3.6 nm (6.7 km) N. Retrieved 2009/08/18 12:00 UTC (10 years ago):

SVSS 181200Z 00000KT 5000 +HZ BKN030 XX/XX Q1014

TAF (pilot weather forecast)

Closest forecast is La Chinita International Airport, 80.3 nm (148.7 km) NNW. Retrieved 2019/04/24 12:03 UTC (5 hours ago):

TAF SVMC 241000Z 2412/2512 09004KT 9999 FEW013 SCT080 PROB30 TEMPO 2420/2502 8000 TSRA FEW010CB BKN013